Terminal Aerodrome Forecast
Issued by NWS St Louis, MO

Home | Current Version | Previous Version | Graphics & Text | Print | Product List | Glossary On
Versions: 1 2 3 4 5 6 7 8 9 10 11 12 13 14 15 16 17 18 19 20 21 22 23 24 25 26 27 28
000
FTUS43 KLSX 282000 AAB
TAFSTL
TAF AMD
KSTL 282001Z 2820/0124 13007KT 1SM -SN OVC025
     FM282300 12005KT 1SM -SN OVC008
     FM011200 27004KT 3SM -SN BR OVC008
     FM011800 34005KT 6SM -SN OVC015=

USA.gov is the U.S. government's official web portal to all federal, state and local government web resources and services.